Time;durP1;ratioP1;P1;durP2;ratioP2;P2;SDS_P1;SDS_P2;PMS_P1;PMS_P2;Temp;Humidity;BMP_temperature;BMP_pressure;BME280_temperature;BME280_humidity;BME280_pressure;Samples;Min_cycle;Max_cycle;Signal;HPM_P1;HPM_P2
2021/04/30 00:00:09;;;;;;;5.05;3.22;;;11.20;49.80;;;;;;1484320;39;20049;-51
2021/04/30 00:01:30;;;;;;;4.28;3.20;;;11.10;49.90;;;;;;1484506;40;20036;-54
2021/04/30 00:02:51;;;;;;;6.25;3.13;;;11.10;49.80;;;;;;1487076;39;20032;-52
2021/04/30 00:04:12;;;;;;;6.88;3.38;;;11.10;49.90;;;;;;1487608;40;20028;-54
2021/04/30 00:05:34;;;;;;;4.57;3.13;;;11.20;49.90;;;;;;1487377;40;20441;-54
2021/04/30 00:06:55;;;;;;;6.63;3.58;;;11.20;50.40;;;;;;1486755;40;20032;-55
2021/04/30 00:08:16;;;;;;;4.07;3.53;;;11.20;50.00;;;;;;1485471;40;20258;-52
2021/04/30 00:09:37;;;;;;;6.47;3.70;;;11.20;49.90;;;;;;1487090;40;20028;-50
2021/04/30 00:10:58;;;;;;;4.53;3.63;;;11.20;49.90;;;;;;1486321;40;20032;-54
2021/04/30 00:12:19;;;;;;;5.38;3.90;;;11.20;49.90;;;;;;1486963;39;20036;-53
2021/04/30 00:13:40;;;;;;;5.70;3.88;;;11.20;50.00;;;;;;1487063;40;20086;-52
2021/04/30 00:15:01;;;;;;;8.13;4.10;;;11.20;50.00;;;;;;1487503;40;20082;-51
2021/04/30 00:16:22;;;;;;;5.28;3.97;;;11.20;50.00;;;;;;1486425;40;20034;-52
2021/04/30 00:17:43;;;;;;;8.27;4.18;;;11.20;49.90;;;;;;1485899;40;20114;-52
2021/04/30 00:19:04;;;;;;;7.75;3.80;;;11.20;50.00;;;;;;1486478;40;20113;-55
2021/04/30 00:20:25;;;;;;;6.05;3.47;;;11.20;50.00;;;;;;1486729;40;20028;-52
2021/04/30 00:21:46;;;;;;;5.82;3.55;;;11.10;50.00;;;;;;1485580;40;20036;-54
2021/04/30 00:23:12;;;;;;;5.25;3.60;;;11.20;50.00;;;;;;1487018;40;20117;-55
2021/04/30 00:24:33;;;;;;;5.40;3.88;;;11.20;50.10;;;;;;1486446;40;20093;-53
2021/04/30 00:25:55;;;;;;;6.30;4.38;;;11.20;50.10;;;;;;1482795;40;20084;-54
2021/04/30 00:27:16;;;;;;;6.25;3.92;;;11.20;50.20;;;;;;1481559;40;20191;-52
2021/04/30 00:28:37;;;;;;;5.18;3.55;;;11.20;50.20;;;;;;1485979;40;20043;-53
2021/04/30 00:29:58;;;;;;;7.85;4.00;;;11.10;50.20;;;;;;1487507;40;20020;-53
2021/04/30 00:31:19;;;;;;;6.55;3.88;;;11.20;50.20;;;;;;1487109;39;20140;-55
2021/04/30 00:32:40;;;;;;;7.43;3.85;;;11.20;50.20;;;;;;1485354;39;20055;-51
2021/04/30 00:34:03;;;;;;;5.13;3.72;;;11.20;50.20;;;;;;1487060;40;20247;-53
2021/04/30 00:35:24;;;;;;;5.00;3.28;;;11.10;50.20;;;;;;1485203;40;20049;-52
2021/04/30 00:36:45;;;;;;;4.93;3.50;;;11.10;50.20;;;;;;1486615;40;20146;-52
2021/04/30 00:38:06;;;;;;;7.10;3.90;;;11.20;50.20;;;;;;1485562;40;20492;-50
2021/04/30 00:39:27;;;;;;;5.22;3.63;;;11.10;50.10;;;;;;1486174;40;20036;-53
2021/04/30 00:40:48;;;;;;;8.13;4.03;;;11.10;50.20;;;;;;1487667;40;20433;-50
2021/04/30 00:42:09;;;;;;;7.80;3.33;;;11.10;50.20;;;;;;1487221;40;20036;-54
2021/04/30 00:43:30;;;;;;;4.95;3.47;;;11.10;50.20;;;;;;1485978;40;20026;-53
2021/04/30 00:44:51;;;;;;;8.75;3.83;;;11.10;50.20;;;;;;1486104;40;20029;-51
2021/04/30 00:46:12;;;;;;;5.97;3.97;;;11.10;50.30;;;;;;1486054;40;20310;-53
2021/04/30 00:47:35;;;;;;;4.53;3.42;;;11.10;50.30;;;;;;1486543;40;20032;-53
2021/04/30 00:48:56;;;;;;;5.38;3.60;;;11.10;50.30;;;;;;1487810;40;20044;-50
2021/04/30 00:50:19;;;;;;;5.40;3.60;;;11.10;50.30;;;;;;1487690;40;20024;-53
2021/04/30 00:51:40;;;;;;;7.13;3.88;;;11.10;50.30;;;;;;1486438;40;20114;-53
2021/04/30 00:53:01;;;;;;;5.43;3.47;;;11.10;50.20;;;;;;1486774;40;20040;-50
2021/04/30 00:54:21;;;;;;;3.60;3.30;;;11.10;50.30;;;;;;1483838;40;20356;-54
2021/04/30 00:55:42;;;;;;;6.22;3.83;;;11.10;50.20;;;;;;1484917;40;20032;-55
2021/04/30 00:57:04;;;;;;;5.57;3.78;;;11.10;50.30;;;;;;1484990;40;20047;-53
2021/04/30 00:58:26;;;;;;;4.50;3.47;;;11.10;50.30;;;;;;1486800;40;20043;-52
2021/04/30 00:59:47;;;;;;;5.47;3.65;;;11.10;50.30;;;;;;1486446;40;20036;-52
2021/04/30 01:01:08;;;;;;;7.15;4.18;;;11.10;50.30;;;;;;1483929;40;20025;-54
2021/04/30 01:02:29;;;;;;;6.18;4.20;;;11.10;50.30;;;;;;1484797;40;20063;-53
2021/04/30 01:03:50;;;;;;;6.68;3.42;;;11.10;50.30;;;;;;1486730;40;20118;-52
2021/04/30 01:05:11;;;;;;;6.10;3.72;;;11.10;50.30;;;;;;1487311;40;20034;-52
2021/04/30 01:06:32;;;;;;;5.13;3.33;;;11.00;50.20;;;;;;1486621;40;20024;-51
2021/04/30 01:07:53;;;;;;;9.52;4.70;;;11.00;50.30;;;;;;1487540;40;20036;-50
2021/04/30 01:09:14;;;;;;;7.80;4.20;;;11.00;50.30;;;;;;1487609;40;20070;-54
2021/04/30 01:10:35;;;;;;;7.30;3.95;;;11.00;50.30;;;;;;1487397;40;20028;-54
2021/04/30 01:11:57;;;;;;;8.70;4.53;;;11.00;50.30;;;;;;1485585;40;20033;-50
2021/04/30 01:13:18;;;;;;;5.03;3.92;;;11.00;50.40;;;;;;1486033;40;20072;-52
2021/04/30 01:14:39;;;;;;;5.82;4.07;;;11.00;50.40;;;;;;1486873;40;20081;-52
2021/04/30 01:16:00;;;;;;;7.15;4.00;;;11.00;50.40;;;;;;1486429;39;20361;-51
2021/04/30 01:17:21;;;;;;;6.03;3.78;;;11.00;50.50;;;;;;1487351;39;20112;-54
2021/04/30 01:18:47;;;;;;;7.18;4.05;;;11.00;50.50;;;;;;1486501;39;20035;-52
2021/04/30 01:20:09;;;;;;;6.65;3.72;;;11.00;50.50;;;;;;1489738;39;20501;-51
2021/04/30 01:21:30;;;;;;;4.53;3.95;;;11.00;50.40;;;;;;1490916;39;20422;-54
2021/04/30 01:22:53;;;;;;;6.97;4.30;;;11.00;50.30;;;;;;1489461;39;20035;-52
2021/04/30 01:24:14;;;;;;;5.28;3.67;;;11.00;50.50;;;;;;1491565;39;20050;-54
2021/04/30 01:25:37;;;;;;;5.57;3.90;;;11.00;50.40;;;;;;1490387;39;20038;-50
2021/04/30 01:26:58;;;;;;;6.57;4.35;;;11.00;50.40;;;;;;1489337;39;20078;-55
2021/04/30 01:28:19;;;;;;;5.53;4.10;;;11.00;50.40;;;;;;1489800;39;20080;-54
2021/04/30 01:29:40;;;;;;;5.22;4.13;;;11.00;50.50;;;;;;1490057;39;20039;-52
2021/04/30 01:31:01;;;;;;;6.07;3.78;;;11.00;50.40;;;;;;1484711;40;20040;-53
2021/04/30 01:32:22;;;;;;;8.02;4.32;;;11.00;50.40;;;;;;1488847;39;20027;-51
2021/04/30 01:33:43;;;;;;;5.20;3.88;;;11.00;50.30;;;;;;1490747;39;20031;-56
2021/04/30 01:35:06;;;;;;;7.53;4.45;;;11.00;50.30;;;;;;1490452;39;20079;-53
2021/04/30 01:36:27;;;;;;;8.55;3.65;;;11.00;50.40;;;;;;1490818;39;20047;-51
2021/04/30 01:37:49;;;;;;;5.90;3.90;;;11.00;50.40;;;;;;1484922;40;20542;-54
2021/04/30 01:39:13;;;;;;;7.40;4.22;;;11.00;50.40;;;;;;1489759;39;20048;-53
2021/04/30 01:40:35;;;;;;;7.80;4.28;;;11.00;50.50;;;;;;1490139;39;20034;-50
2021/04/30 01:41:56;;;;;;;6.55;4.35;;;11.00;50.50;;;;;;1489994;39;20041;-52
2021/04/30 01:43:19;;;;;;;6.78;4.38;;;11.00;50.40;;;;;;1491143;39;20051;-52
2021/04/30 01:44:40;;;;;;;6.45;4.43;;;11.00;50.60;;;;;;1490731;39;20040;-53
2021/04/30 01:46:04;;;;;;;9.25;4.35;;;11.00;50.40;;;;;;1489989;39;20040;-51
2021/04/30 01:47:25;;;;;;;7.55;5.03;;;11.00;50.40;;;;;;1488745;39;20282;-52
2021/04/30 01:48:46;;;;;;;7.78;4.38;;;11.00;50.40;;;;;;1489093;39;20038;-53
2021/04/30 01:50:08;;;;;;;6.50;4.28;;;11.00;50.40;;;;;;1491040;39;20036;-54
2021/04/30 01:51:29;;;;;;;6.35;4.03;;;11.00;50.40;;;;;;1490527;39;20034;-54
2021/04/30 01:52:49;;;;;;;6.07;4.53;;;10.90;50.50;;;;;;1489758;39;20035;-52
2021/04/30 01:54:10;;;;;;;8.50;4.55;;;10.90;50.50;;;;;;1490431;39;20043;-51
2021/04/30 01:55:31;;;;;;;8.27;4.53;;;11.00;50.50;;;;;;1489347;39;20023;-51
2021/04/30 01:56:52;;;;;;;4.95;4.40;;;11.00;50.50;;;;;;1490748;39;20047;-51
2021/04/30 01:58:16;;;;;;;6.78;5.07;;;11.00;50.30;;;;;;1491304;39;20039;-51
2021/04/30 01:59:37;;;;;;;9.80;4.97;;;10.90;50.40;;;;;;1489932;39;20028;-53
2021/04/30 02:00:58;;;;;;;7.95;5.10;;;10.90;50.30;;;;;;1488698;39;20043;-51
2021/04/30 02:02:19;;;;;;;9.52;4.50;;;10.90;50.30;;;;;;1490900;39;20063;-53
2021/04/30 02:03:40;;;;;;;8.07;5.30;;;10.90;50.40;;;;;;1490590;39;20135;-53
2021/04/30 02:05:01;;;;;;;8.77;4.82;;;10.90;50.40;;;;;;1490876;39;20329;-51
2021/04/30 02:06:22;;;;;;;5.78;5.05;;;10.90;50.40;;;;;;1488383;39;20055;-52
2021/04/30 02:07:43;;;;;;;9.20;5.05;;;10.90;50.40;;;;;;1490531;39;20053;-53
2021/04/30 02:09:06;;;;;;;5.38;4.75;;;10.90;50.40;;;;;;1490394;39;20048;-52
2021/04/30 02:10:27;;;;;;;5.15;4.40;;;11.00;50.50;;;;;;1489854;39;20380;-50
2021/04/30 02:11:48;;;;;;;9.57;5.25;;;10.90;50.40;;;;;;1488815;39;20063;-56
2021/04/30 02:13:10;;;;;;;5.90;4.90;;;10.90;50.40;;;;;;1488757;39;20032;-54
2021/04/30 02:14:31;;;;;;;7.88;5.75;;;10.90;50.40;;;;;;1491224;39;20028;-53
2021/04/30 02:15:53;;;;;;;7.38;5.20;;;10.90;50.50;;;;;;1483865;39;20079;-52
2021/04/30 02:17:14;;;;;;;8.07;5.32;;;10.90;50.50;;;;;;1489728;39;20047;-54
2021/04/30 02:18:35;;;;;;;7.93;5.57;;;10.90;50.50;;;;;;1489471;39;20024;-53
2021/04/30 02:19:56;;;;;;;8.57;6.10;;;10.90;50.50;;;;;;1490920;39;20032;-53
2021/04/30 02:21:17;;;;;;;7.05;5.15;;;10.90;50.50;;;;;;1490482;39;20024;-53
2021/04/30 02:22:39;;;;;;;10.65;5.95;;;10.90;50.50;;;;;;1490612;39;20048;-52
2021/04/30 02:24:00;;;;;;;9.13;5.70;;;10.90;50.60;;;;;;1490913;39;20073;-53
2021/04/30 02:25:22;;;;;;;9.25;6.25;;;10.90;50.60;;;;;;1489295;39;20384;-54
2021/04/30 02:26:43;;;;;;;6.97;5.82;;;10.90;50.60;;;;;;1489417;39;20030;-51
2021/04/30 02:28:05;;;;;;;9.27;6.00;;;10.90;50.60;;;;;;1489959;39;20044;-52
2021/04/30 02:29:26;;;;;;;8.63;6.13;;;10.90;50.70;;;;;;1489667;39;20054;-53
2021/04/30 02:30:46;;;;;;;8.15;5.70;;;10.90;50.70;;;;;;1487346;39;20036;-51
2021/04/30 02:32:07;;;;;;;9.48;6.25;;;10.80;50.70;;;;;;1488440;39;20028;-51
2021/04/30 02:33:28;;;;;;;9.07;5.88;;;10.80;50.70;;;;;;1490828;39;20039;-52
2021/04/30 02:34:52;;;;;;;7.38;5.93;;;10.80;50.80;;;;;;1489232;39;20036;-53
2021/04/30 02:36:13;;;;;;;7.32;5.78;;;10.80;50.80;;;;;;1488694;39;20054;-51
2021/04/30 02:37:34;;;;;;;10.07;5.93;;;10.80;50.80;;;;;;1490449;39;20040;-55
2021/04/30 02:38:55;;;;;;;9.75;6.20;;;10.80;50.80;;;;;;1490712;39;20030;-54
2021/04/30 02:40:17;;;;;;;6.63;5.63;;;10.80;50.90;;;;;;1489471;39;20393;-54
2021/04/30 02:41:38;;;;;;;7.35;5.28;;;10.80;50.90;;;;;;1489348;39;20020;-53
2021/04/30 02:43:01;;;;;;;9.10;6.13;;;10.80;50.90;;;;;;1488427;39;20042;-54
2021/04/30 02:44:22;;;;;;;6.70;6.00;;;10.80;51.00;;;;;;1490469;39;20030;-53
2021/04/30 02:45:43;;;;;;;8.90;6.22;;;10.80;51.00;;;;;;1489755;39;20035;-53
2021/04/30 02:47:05;;;;;;;8.13;6.00;;;10.80;50.90;;;;;;1488624;39;20035;-52
2021/04/30 02:48:30;;;;;;;10.15;6.78;;;10.80;51.10;;;;;;1485575;39;20120;-53
2021/04/30 02:49:53;;;;;;;7.85;6.03;;;10.80;51.00;;;;;;1489834;39;20076;-54
2021/04/30 02:51:14;;;;;;;8.07;6.45;;;10.80;51.00;;;;;;1490736;39;20040;-52
2021/04/30 02:52:35;;;;;;;9.27;6.50;;;10.80;51.00;;;;;;1489834;39;20036;-54
2021/04/30 02:53:56;;;;;;;8.48;6.60;;;10.80;51.00;;;;;;1489720;39;20027;-52
2021/04/30 02:55:22;;;;;;;10.45;7.28;;;10.80;51.10;;;;;;1490528;39;20116;-51
2021/04/30 02:56:43;;;;;;;8.55;6.75;;;10.80;51.20;;;;;;1489116;39;20047;-54
2021/04/30 02:58:05;;;;;;;10.50;7.07;;;10.80;51.10;;;;;;1488402;39;20437;-50
2021/04/30 02:59:27;;;;;;;9.85;6.70;;;10.80;51.00;;;;;;1490052;39;20023;-50
2021/04/30 03:00:48;;;;;;;8.98;7.00;;;10.80;51.60;;;;;;1487354;39;20124;-52
2021/04/30 03:02:10;;;;;;;9.55;7.22;;;10.80;51.10;;;;;;1489349;39;20043;-52
2021/04/30 03:03:31;;;;;;;9.07;6.75;;;10.80;51.10;;;;;;1489849;39;20026;-51
2021/04/30 03:04:52;;;;;;;12.65;7.35;;;10.80;51.10;;;;;;1490980;39;20493;-51
2021/04/30 03:06:13;;;;;;;10.38;6.93;;;10.80;51.20;;;;;;1490807;39;20036;-53
2021/04/30 03:07:34;;;;;;;11.93;7.53;;;10.80;51.20;;;;;;1490478;39;20020;-51
2021/04/30 03:08:55;;;;;;;10.18;6.95;;;10.80;51.30;;;;;;1490132;39;20083;-51
2021/04/30 03:10:17;;;;;;;10.20;6.85;;;10.80;51.30;;;;;;1490167;39;20035;-53
2021/04/30 03:11:38;;;;;;;9.13;7.13;;;10.80;51.30;;;;;;1490281;39;20035;-54
2021/04/30 03:12:59;;;;;;;10.57;7.65;;;10.80;51.30;;;;;;1489883;39;20034;-53
2021/04/30 03:14:20;;;;;;;8.57;7.43;;;10.80;51.30;;;;;;1489172;39;20054;-54
2021/04/30 03:15:41;;;;;;;9.95;7.13;;;10.80;51.40;;;;;;1487089;39;20015;-52
2021/04/30 03:17:02;;;;;;;11.73;8.23;;;10.80;51.40;;;;;;1488542;39;20033;-51
2021/04/30 03:18:23;;;;;;;10.32;7.30;;;10.80;51.40;;;;;;1488337;39;20112;-54
2021/04/30 03:19:43;;;;;;;10.02;7.60;;;10.80;51.40;;;;;;1490820;39;20034;-54
2021/04/30 03:21:04;;;;;;;10.70;8.23;;;10.80;51.50;;;;;;1491124;39;20274;-50
2021/04/30 03:22:25;;;;;;;10.52;7.70;;;10.80;51.50;;;;;;1490927;39;20349;-52
2021/04/30 03:23:47;;;;;;;10.82;7.82;;;10.80;51.50;;;;;;1489396;39;20241;-50
2021/04/30 03:25:08;;;;;;;8.68;7.65;;;10.80;51.50;;;;;;1491388;39;20023;-55
2021/04/30 03:26:29;;;;;;;11.27;8.27;;;10.80;51.50;;;;;;1488999;39;20108;-52
2021/04/30 03:27:50;;;;;;;12.82;7.97;;;10.80;51.50;;;;;;1490703;39;20036;-50
2021/04/30 03:29:11;;;;;;;9.32;7.82;;;10.80;51.40;;;;;;1490975;39;20031;-50
2021/04/30 03:30:32;;;;;;;10.45;8.52;;;10.80;51.50;;;;;;1488343;39;20024;-50
2021/04/30 03:31:53;;;;;;;9.88;8.52;;;10.80;51.40;;;;;;1489056;39;20027;-52
2021/04/30 03:33:14;;;;;;;13.90;9.30;;;10.80;51.40;;;;;;1488447;39;20057;-53
2021/04/30 03:34:36;;;;;;;10.25;8.52;;;10.80;51.50;;;;;;1490766;39;20106;-51
2021/04/30 03:35:57;;;;;;;10.68;8.43;;;10.80;51.50;;;;;;1490791;39;20020;-54
2021/04/30 03:37:18;;;;;;;11.23;8.98;;;10.80;51.60;;;;;;1488814;39;20043;-51
2021/04/30 03:38:39;;;;;;;11.88;9.20;;;10.80;51.60;;;;;;1490632;39;20024;-52
2021/04/30 03:40:00;;;;;;;10.82;8.52;;;10.80;51.60;;;;;;1488677;39;20053;-51
2021/04/30 03:41:21;;;;;;;11.48;9.15;;;10.80;51.50;;;;;;1490000;39;20039;-54
2021/04/30 03:42:42;;;;;;;14.90;9.70;;;10.80;51.50;;;;;;1487726;39;20043;-50
2021/04/30 03:44:03;;;;;;;10.57;8.77;;;10.80;51.60;;;;;;1488727;39;20031;-48
2021/04/30 03:45:24;;;;;;;10.30;8.05;;;10.80;51.60;;;;;;1489338;39;20032;-52
2021/04/30 03:46:45;;;;;;;10.55;8.70;;;10.80;51.50;;;;;;1489080;39;20039;-50
2021/04/30 03:48:06;;;;;;;10.85;9.13;;;10.80;51.50;;;;;;1489283;39;20139;-49
2021/04/30 03:49:27;;;;;;;13.73;10.10;;;10.80;51.60;;;;;;1490326;39;20061;-52
2021/04/30 03:50:48;;;;;;;13.80;8.93;;;10.80;51.60;;;;;;1490571;39;20048;-50
2021/04/30 03:52:09;;;;;;;9.52;8.52;;;10.80;51.60;;;;;;1490809;39;20059;-49
2021/04/30 03:53:30;;;;;;;11.70;8.77;;;10.80;51.60;;;;;;1490073;39;20048;-52
2021/04/30 03:54:51;;;;;;;9.82;8.55;;;10.80;51.60;;;;;;1488975;39;20071;-52
2021/04/30 03:56:12;;;;;;;12.48;8.63;;;10.70;51.60;;;;;;1490118;39;20309;-51
2021/04/30 03:57:33;;;;;;;11.90;9.25;;;10.70;51.60;;;;;;1487195;39;20060;-52
2021/04/30 03:58:53;;;;;;;10.02;8.25;;;10.70;51.60;;;;;;1489609;39;20036;-52
2021/04/30 04:00:15;;;;;;;15.38;9.93;;;10.80;51.60;;;;;;1487983;39;20040;-52
2021/04/30 04:01:36;;;;;;;12.93;9.43;;;10.80;51.60;;;;;;1490767;39;20036;-51
2021/04/30 04:02:57;;;;;;;10.00;8.75;;;10.70;51.50;;;;;;1490935;39;20031;-52
2021/04/30 04:04:18;;;;;;;11.27;8.60;;;10.70;51.60;;;;;;1490199;39;20044;-50
2021/04/30 04:05:38;;;;;;;10.70;8.82;;;10.70;51.60;;;;;;1491363;39;20096;-49
2021/04/30 04:06:59;;;;;;;10.43;8.70;;;10.70;51.70;;;;;;1485021;40;20043;-50
2021/04/30 04:08:20;;;;;;;11.15;8.80;;;10.70;51.70;;;;;;1485301;40;20016;-52
2021/04/30 04:09:41;;;;;;;12.77;9.88;;;10.70;51.70;;;;;;1488561;39;20338;-51
2021/04/30 04:11:02;;;;;;;12.55;9.20;;;10.70;51.90;;;;;;1489398;39;20281;-53
2021/04/30 04:12:23;;;;;;;14.15;9.80;;;10.70;51.80;;;;;;1486202;39;20028;-51
2021/04/30 04:13:44;;;;;;;11.52;10.10;;;10.70;51.80;;;;;;1489426;39;20032;-52
2021/04/30 04:15:05;;;;;;;13.45;9.23;;;10.70;51.80;;;;;;1490428;39;20048;-50
2021/04/30 04:16:26;;;;;;;12.50;9.48;;;10.70;51.80;;;;;;1490078;39;20183;-54
2021/04/30 04:17:47;;;;;;;12.20;9.35;;;10.70;51.80;;;;;;1491170;39;20517;-51
2021/04/30 04:19:09;;;;;;;12.20;8.70;;;10.70;51.80;;;;;;1491477;39;20064;-51
2021/04/30 04:20:30;;;;;;;10.82;8.88;;;10.70;51.90;;;;;;1491782;39;20128;-53
2021/04/30 04:21:51;;;;;;;10.98;9.05;;;10.70;51.90;;;;;;1490635;39;20090;-56
2021/04/30 04:23:12;;;;;;;12.40;8.77;;;10.70;51.90;;;;;;1490444;39;20261;-53
2021/04/30 04:24:33;;;;;;;12.95;9.40;;;10.70;52.00;;;;;;1490810;39;20060;-52
2021/04/30 04:25:54;;;;;;;10.98;8.57;;;10.70;52.10;;;;;;1490037;39;20036;-54
2021/04/30 04:27:15;;;;;;;12.32;8.75;;;10.70;52.10;;;;;;1488923;39;20131;-53
2021/04/30 04:28:36;;;;;;;10.85;8.93;;;10.70;52.10;;;;;;1488034;39;20036;-52
2021/04/30 04:29:57;;;;;;;14.00;9.40;;;10.70;52.10;;;;;;1488840;39;20283;-50
2021/04/30 04:31:18;;;;;;;10.98;8.73;;;10.70;52.10;;;;;;1490144;39;20060;-54
2021/04/30 04:32:39;;;;;;;13.38;8.70;;;10.70;52.20;;;;;;1491183;39;20043;-53
2021/04/30 04:34:00;;;;;;;12.25;8.77;;;10.70;52.20;;;;;;1490106;39;20042;-53
2021/04/30 04:35:21;;;;;;;14.25;9.07;;;10.70;52.10;;;;;;1491370;39;20357;-53
2021/04/30 04:36:43;;;;;;;11.88;9.68;;;10.70;52.10;;;;;;1490646;39;20028;-54
2021/04/30 04:38:04;;;;;;;12.43;9.80;;;10.70;52.10;;;;;;1490548;39;20329;-52
2021/04/30 04:39:25;;;;;;;13.15;9.13;;;10.70;52.10;;;;;;1490198;39;20050;-51
2021/04/30 04:40:46;;;;;;;13.07;8.82;;;10.70;52.10;;;;;;1489878;39;20073;-50
2021/04/30 04:42:07;;;;;;;12.85;9.43;;;10.70;52.10;;;;;;1489675;39;20336;-52
2021/04/30 04:43:28;;;;;;;12.38;8.77;;;10.70;52.10;;;;;;1489543;39;20091;-54
2021/04/30 04:44:49;;;;;;;11.50;9.07;;;10.80;52.10;;;;;;1490497;39;20032;-53
2021/04/30 04:46:10;;;;;;;11.80;8.95;;;10.70;52.10;;;;;;1490547;39;20055;-52
2021/04/30 04:47:31;;;;;;;15.05;8.95;;;10.80;52.20;;;;;;1490189;39;20082;-50
2021/04/30 04:48:51;;;;;;;11.13;9.05;;;10.70;52.10;;;;;;1489872;39;20035;-53
2021/04/30 04:50:14;;;;;;;12.73;9.85;;;10.70;52.20;;;;;;1491246;39;20361;-50
2021/04/30 04:51:35;;;;;;;12.10;9.27;;;10.80;52.30;;;;;;1488518;39;20035;-51
2021/04/30 04:52:55;;;;;;;11.75;9.88;;;10.70;52.30;;;;;;1490731;39;20180;-53
2021/04/30 04:54:16;;;;;;;11.48;9.38;;;10.70;52.20;;;;;;1490619;39;20035;-50
2021/04/30 04:55:37;;;;;;;14.35;9.00;;;10.70;52.20;;;;;;1489988;39;20038;-52
2021/04/30 04:56:58;;;;;;;11.35;8.98;;;10.80;52.30;;;;;;1490987;39;20036;-50
2021/04/30 04:58:20;;;;;;;10.85;9.20;;;10.80;52.30;;;;;;1490724;39;20375;-51
2021/04/30 04:59:41;;;;;;;12.98;9.40;;;10.80;52.40;;;;;;1490649;39;20024;-51
2021/04/30 05:01:02;;;;;;;11.23;9.30;;;10.80;52.40;;;;;;1488719;39;20277;-51
2021/04/30 05:02:23;;;;;;;11.85;9.07;;;10.80;52.40;;;;;;1491014;39;20139;-48
2021/04/30 05:03:44;;;;;;;13.13;10.07;;;10.80;52.50;;;;;;1490758;39;20640;-51
2021/04/30 05:05:06;;;;;;;12.15;9.48;;;10.80;52.50;;;;;;1491268;39;20086;-52
2021/04/30 05:06:27;;;;;;;12.93;9.73;;;10.80;52.50;;;;;;1489243;39;20024;-48
2021/04/30 05:07:48;;;;;;;12.35;9.10;;;10.80;52.50;;;;;;1489465;39;20028;-52
2021/04/30 05:09:10;;;;;;;13.07;9.77;;;10.80;52.60;;;;;;1490000;39;20102;-50
2021/04/30 05:10:31;;;;;;;11.60;9.80;;;10.80;52.60;;;;;;1491288;39;20246;-49
2021/04/30 05:11:52;;;;;;;12.40;9.32;;;10.80;52.60;;;;;;1490897;39;20034;-51
2021/04/30 05:13:13;;;;;;;11.10;9.70;;;10.80;52.60;;;;;;1491192;39;20145;-51
2021/04/30 05:14:34;;;;;;;12.10;9.38;;;10.70;52.60;;;;;;1490958;39;20028;-53
2021/04/30 05:15:55;;;;;;;13.98;9.52;;;10.80;52.70;;;;;;1488893;39;20284;-52
2021/04/30 05:17:16;;;;;;;12.27;9.18;;;10.80;52.60;;;;;;1490777;39;20352;-53
2021/04/30 05:18:37;;;;;;;12.40;9.27;;;10.80;52.70;;;;;;1490632;39;20077;-53
2021/04/30 05:19:57;;;;;;;14.18;10.07;;;10.80;52.70;;;;;;1489070;39;20027;-52
2021/04/30 05:21:19;;;;;;;12.07;8.88;;;10.80;53.20;;;;;;1489783;39;20028;-53
2021/04/30 05:22:42;;;;;;;10.82;9.50;;;10.80;52.80;;;;;;1491533;39;20391;-51
2021/04/30 05:24:03;;;;;;;12.35;9.27;;;10.80;52.80;;;;;;1491136;39;20075;-50
2021/04/30 05:25:24;;;;;;;12.88;10.20;;;10.80;52.80;;;;;;1489071;39;20284;-53
2021/04/30 05:26:45;;;;;;;11.75;9.60;;;10.80;52.80;;;;;;1490701;39;20101;-53
2021/04/30 05:28:06;;;;;;;10.85;9.05;;;10.80;52.80;;;;;;1490868;39;20047;-53
2021/04/30 05:29:27;;;;;;;13.05;9.98;;;10.80;52.70;;;;;;1490699;39;20019;-54
2021/04/30 05:30:48;;;;;;;11.23;9.48;;;10.80;52.70;;;;;;1488867;39;20167;-51
2021/04/30 05:32:10;;;;;;;15.18;9.52;;;10.80;52.80;;;;;;1490248;39;20054;-54
2021/04/30 05:33:31;;;;;;;11.50;10.25;;;10.80;52.80;;;;;;1490310;39;20061;-53
2021/04/30 05:34:52;;;;;;;17.63;10.15;;;10.80;52.90;;;;;;1490585;39;20030;-52
2021/04/30 05:36:13;;;;;;;15.40;9.52;;;10.80;52.80;;;;;;1490235;39;20035;-55
2021/04/30 05:37:34;;;;;;;12.32;9.40;;;10.80;52.80;;;;;;1491018;39;20032;-54
2021/04/30 05:38:55;;;;;;;12.30;9.38;;;10.80;53.00;;;;;;1491544;39;20039;-50
2021/04/30 05:40:16;;;;;;;12.52;9.35;;;10.90;53.00;;;;;;1491593;39;20087;-54
2021/04/30 05:41:37;;;;;;;11.65;9.15;;;10.80;52.90;;;;;;1490228;39;20600;-54
2021/04/30 05:42:58;;;;;;;12.18;9.13;;;10.80;52.90;;;;;;1490163;39;20488;-53
2021/04/30 05:44:19;;;;;;;11.95;9.43;;;10.90;52.90;;;;;;1491509;39;20254;-54
2021/04/30 05:45:40;;;;;;;14.07;9.10;;;10.90;52.90;;;;;;1489940;39;20120;-54
2021/04/30 05:47:01;;;;;;;9.75;8.75;;;10.80;52.90;;;;;;1489045;39;20290;-54
2021/04/30 05:48:22;;;;;;;15.57;10.30;;;10.90;53.00;;;;;;1490285;39;20044;-53
2021/04/30 05:49:43;;;;;;;11.82;9.45;;;10.90;52.90;;;;;;1490732;39;20023;-52
2021/04/30 05:51:04;;;;;;;13.85;9.38;;;10.90;52.90;;;;;;1489656;39;20028;-53
2021/04/30 05:52:25;;;;;;;11.50;9.43;;;10.90;52.90;;;;;;1490981;39;20032;-53
2021/04/30 05:53:46;;;;;;;12.25;8.85;;;10.90;52.90;;;;;;1490724;39;20332;-52
2021/04/30 05:55:09;;;;;;;10.65;9.02;;;10.90;53.00;;;;;;1491082;39;20040;-53
2021/04/30 05:56:30;;;;;;;15.95;10.30;;;10.90;53.10;;;;;;1491188;39;20452;-54
2021/04/30 05:57:51;;;;;;;13.95;9.88;;;10.90;53.00;;;;;;1489700;39;20023;-53
2021/04/30 05:59:12;;;;;;;11.18;8.93;;;10.90;53.00;;;;;;1491428;39;20569;-49
2021/04/30 06:00:33;;;;;;;12.05;9.02;;;10.90;53.00;;;;;;1490975;39;20016;-51
2021/04/30 06:01:54;;;;;;;11.70;10.10;;;10.90;53.00;;;;;;1488997;39;20028;-55
2021/04/30 06:03:14;;;;;;;10.88;9.57;;;10.90;53.10;;;;;;1488598;39;20382;-53
2021/04/30 06:04:35;;;;;;;16.83;10.45;;;10.90;53.10;;;;;;1490712;39;20035;-55
2021/04/30 06:05:56;;;;;;;12.95;9.68;;;10.90;53.10;;;;;;1491347;39;20023;-51
2021/04/30 06:07:17;;;;;;;15.18;10.65;;;10.90;53.20;;;;;;1490583;39;20039;-54
2021/04/30 06:08:38;;;;;;;15.18;9.90;;;10.90;53.30;;;;;;1491324;39;20028;-53
2021/04/30 06:09:59;;;;;;;11.40;9.48;;;10.90;53.30;;;;;;1487671;39;20035;-55
2021/04/30 06:11:20;;;;;;;15.00;10.38;;;10.90;53.40;;;;;;1490296;39;20281;-57
2021/04/30 06:12:42;;;;;;;11.95;9.73;;;10.90;53.50;;;;;;1488868;39;20041;-51
2021/04/30 06:14:03;;;;;;;13.35;10.20;;;10.90;53.60;;;;;;1491521;39;20350;-53
2021/04/30 06:15:23;;;;;;;12.82;9.80;;;10.90;53.70;;;;;;1490219;39;20028;-53
2021/04/30 06:16:45;;;;;;;14.15;10.80;;;10.90;53.80;;;;;;1489832;39;20369;-56
2021/04/30 06:18:06;;;;;;;16.05;10.77;;;10.90;54.00;;;;;;1490820;39;20036;-54
2021/04/30 06:19:27;;;;;;;15.38;10.45;;;10.90;54.20;;;;;;1491045;39;20056;-53
2021/04/30 06:20:48;;;;;;;12.55;9.75;;;10.90;54.20;;;;;;1489968;39;20035;-56
2021/04/30 06:22:09;;;;;;;13.88;10.70;;;10.90;54.20;;;;;;1491227;39;20417;-55
2021/04/30 06:23:29;;;;;;;13.48;10.00;;;10.90;54.30;;;;;;1490305;39;20036;-54
2021/04/30 06:24:50;;;;;;;13.95;11.00;;;10.90;54.40;;;;;;1490926;39;20036;-55
2021/04/30 06:26:11;;;;;;;14.10;10.20;;;10.90;54.50;;;;;;1490386;39;20093;-53
2021/04/30 06:27:32;;;;;;;13.38;10.90;;;10.90;54.60;;;;;;1490271;39;20024;-52
2021/04/30 06:28:53;;;;;;;13.35;10.80;;;10.90;54.60;;;;;;1488932;39;20031;-54
2021/04/30 06:30:15;;;;;;;13.65;10.30;;;10.90;54.80;;;;;;1491401;39;20072;-51
2021/04/30 06:31:36;;;;;;;16.80;11.10;;;10.90;55.00;;;;;;1488790;39;20032;-54
2021/04/30 06:32:57;;;;;;;13.90;11.27;;;10.90;55.00;;;;;;1491461;39;20337;-51
2021/04/30 06:34:18;;;;;;;14.23;10.90;;;10.90;55.00;;;;;;1491514;39;20032;-53
2021/04/30 06:35:39;;;;;;;16.80;11.82;;;10.90;55.20;;;;;;1490885;39;20049;-55
2021/04/30 06:37:00;;;;;;;14.93;11.43;;;10.90;55.40;;;;;;1490715;39;20060;-55
2021/04/30 06:38:21;;;;;;;15.00;10.95;;;10.90;55.30;;;;;;1490703;39;20044;-53
2021/04/30 06:39:42;;;;;;;13.93;10.43;;;10.90;55.50;;;;;;1489587;39;20148;-54
2021/04/30 06:41:03;;;;;;;15.07;11.43;;;10.90;55.60;;;;;;1490352;39;20135;-54
2021/04/30 06:42:24;;;;;;;11.90;10.48;;;10.90;55.70;;;;;;1490240;39;20323;-54
2021/04/30 06:43:45;;;;;;;16.85;11.98;;;10.90;55.60;;;;;;1490369;39;20050;-55
2021/04/30 06:45:07;;;;;;;16.73;11.80;;;10.90;55.60;;;;;;1490743;39;20050;-54
2021/04/30 06:46:28;;;;;;;17.33;11.10;;;10.90;55.70;;;;;;1489617;39;20038;-57
2021/04/30 06:47:49;;;;;;;16.85;11.82;;;10.90;55.70;;;;;;1488795;39;20016;-57
2021/04/30 06:49:10;;;;;;;14.80;11.15;;;10.90;55.80;;;;;;1490261;39;20071;-53
2021/04/30 06:50:31;;;;;;;16.50;12.25;;;10.90;55.90;;;;;;1489452;39;20407;-51
2021/04/30 06:51:52;;;;;;;13.55;11.05;;;10.90;55.90;;;;;;1490374;39;20036;-55
2021/04/30 06:53:13;;;;;;;12.75;10.43;;;10.90;56.10;;;;;;1489261;39;20086;-56
2021/04/30 06:54:33;;;;;;;12.27;10.75;;;10.90;56.10;;;;;;1490978;39;20026;-56
2021/04/30 06:55:54;;;;;;;13.02;11.30;;;10.90;56.30;;;;;;1489480;39;20608;-52
2021/04/30 06:57:17;;;;;;;18.20;12.05;;;10.90;56.40;;;;;;1489505;39;20047;-54
2021/04/30 06:58:37;;;;;;;14.15;12.05;;;11.00;56.50;;;;;;1490079;39;20024;-56